Flight Track Log - Related Links

Times and Time Zones

All times are in EDT time to prevent confusion due to time zone crossing. See the RPA3228 flight status page for this flight to view local times or setup timezone preferences in your user account.

Time Position Orientation Groundspeed Altitude Reporting Facility
EDT Latitude Longitude Course Direction KTS MPH feet Rate Location/Type
Wed 07:39:42 AM 36.1333 -86.6833 68° East 158 182 1,600  Level Nashville TRACON
Wed 07:40:12 AM 36.1500 -86.7167 302° West 161 185 2,600 2,067 Climbing Nashville TRACON
Wed 07:41:12 AM 36.1167 -86.7667 230° Southwest 257 296 4,700 2,826 Climbing Nashville TRACON
Wed 07:42:00 AM 36.2472 -86.3093 80° East  Level Estimated
Wed 07:43:00 AM 36.2879 -86.1861 64° Northeast  Level Estimated
Wed 07:43:04 AM 36.0975 -86.6042 98° East 299 344 10,700  Level Memphis Center
Wed 07:44:00 AM 36.3284 -86.0627 68° East  Level Estimated
Wed 07:44:04 AM 36.1194 -86.4978 76° East 306 352 13,100  Level Memphis Center
Wed 07:45:00 AM 36.3689 -85.9393 68° East  Level Estimated
Wed 07:45:04 AM 36.1408 -86.3836 77° East 327 376 15,600  Level Memphis Center
Wed 07:46:04 AM 36.1642 -86.2669 76° East 338 389 17,800 1,850 Climbing Memphis Center
Wed 07:47:04 AM 36.1856 -86.1578 76° East 344 396 19,300 1,600 Climbing Memphis Center
Wed 07:48:04 AM 36.2167 -86.0325 73° East 362 417 21,000 1,750 Climbing Memphis Center
Wed 07:49:04 AM 36.2708 -85.9139 60° Northeast 373 429 22,800 1,663 Climbing Memphis Center
Wed 07:49:45 AM 36.3047 -85.8344 62° Northeast 401 461 23,800 1,573 Climbing Indianapolis Center
Wed 07:50:47 AM 36.3681 -85.6992 60° Northeast 409 471 25,500 1,610 Climbing Indianapolis Center
Wed 07:51:48 AM 36.4294 -85.5739 59° Northeast 420 483 27,100 1,561 Climbing Indianapolis Center
Wed 07:52:50 AM 36.4878 -85.4481 60° Northeast 419 482 28,700 1,415 Climbing Indianapolis Center
Wed 07:53:51 AM 36.5494 -85.3186 59° Northeast 429 494 30,000 1,122 Climbing Indianapolis Center
Wed 07:54:53 AM 36.6119 -85.1819 60° Northeast 444 511 31,000 488 Climbing Indianapolis Center
Wed 07:55:54 AM 36.6544 -85.0497 68° East 417 480 31,000  Level Indianapolis Center
Wed 07:56:56 AM 36.6914 -84.9256 70° East 386 444 31,000  Level Indianapolis Center
Wed 07:57:58 AM 36.7383 -84.7750 69° East 386 444 31,000  Level Indianapolis Center
Wed 07:58:59 AM 36.7767 -84.6497 69° East 386 444 31,000  Level Indianapolis Center
Wed 08:00:01 AM 36.8142 -84.5236 70° East 385 443 31,000  Level Indianapolis Center
Wed 08:01:02 AM 36.8528 -84.3942 70° East 386 444 31,000  Level Indianapolis Center
Wed 08:02:04 AM 36.8917 -84.2686 69° East 386 444 31,000  Level Indianapolis Center
Wed 08:03:05 AM 36.9278 -84.1422 70° East 385 443 31,000  Level Indianapolis Center
Wed 08:04:07 AM 36.9664 -84.0161 69° East 387 445 31,000  Level Indianapolis Center
Wed 08:05:09 AM 37.0031 -83.8897 70° East 385 443 31,000  Level Indianapolis Center
Wed 08:06:10 AM 37.0408 -83.7647 69° East 382 440 31,000  Level Indianapolis Center
Wed 08:07:12 AM 37.0786 -83.6364 70° East 388 447 31,000  Level Indianapolis Center
Wed 08:08:13 AM 37.1211 -83.4881 70° East 386 444 31,000  Level Indianapolis Center
Wed 08:09:15 AM 37.1589 -83.3606 70° East 387 445 31,000  Level Indianapolis Center
Wed 08:10:17 AM 37.1697 -83.2264 84° East 391 450 31,000  Level Indianapolis Center
Wed 08:11:18 AM 37.1692 -83.0892 90° East 391 450 31,000  Level Indianapolis Center
Wed 08:12:20 AM 37.1689 -82.9517 90° East 390 449 31,000  Level Indianapolis Center
Wed 08:13:22 AM 37.1678 -82.8156 91° East 386 444 31,000  Level Indianapolis Center
Wed 08:14:23 AM 37.1675 -82.6800 90° East 385 443 31,000  Level Indianapolis Center
Wed 08:15:25 AM 37.1672 -82.5450 90° East 384 442 31,000  Level Indianapolis Center
Wed 08:16:26 AM 37.1956 -82.4217 74° East 373 429 31,000  Level Indianapolis Center
Wed 08:17:28 AM 37.2872 -82.3236 40° Northeast 366 421 31,000  Level Indianapolis Center
Wed 08:18:30 AM 37.3672 -82.2392 40° Northeast 371 427 31,000  Level Indianapolis Center
Wed 08:19:31 AM 37.4436 -82.1531 42° Northeast 369 425 31,000  Level Indianapolis Center
Wed 08:20:33 AM 37.4850 -82.0308 67° East 376 433 31,000  Level Indianapolis Center
Wed 08:21:35 AM 37.5286 -81.9100 65° Northeast 377 434 31,000  Level Indianapolis Center
Wed 08:22:36 AM 37.5861 -81.8008 56° Northeast 372 428 31,000  Level Indianapolis Center
Wed 08:23:38 AM 37.6481 -81.6947 54° Northeast 374 430 31,000  Level Indianapolis Center
Wed 08:24:40 AM 37.7175 -81.5689 55° Northeast 374 430 31,000  Level Indianapolis Center
Wed 08:25:42 AM 37.7722 -81.4725 54° Northeast 375 432 31,000  Level Indianapolis Center
Wed 08:26:43 AM 37.8406 -81.3489 55° Northeast 373 429 31,000  Level Indianapolis Center
Wed 08:27:45 AM 37.8967 -81.2369 58° Northeast 375 432 31,000  Level Indianapolis Center
Wed 08:28:47 AM 37.9361 -81.1139 68° East 381 438 31,000  Level Indianapolis Center
Wed 08:29:49 AM 37.9675 -80.9878 72° East 378 435 31,000  Level Indianapolis Center
Wed 08:30:50 AM 37.9992 -80.8606 72° East 380 437 31,000  Level Indianapolis Center
Wed 08:31:52 AM 38.0306 -80.7331 73° East 381 438 31,000  Level Indianapolis Center
Wed 08:32:54 AM 38.0617 -80.6039 73° East 384 442 31,000  Level Indianapolis Center
Wed 08:33:56 AM 38.0994 -80.4489 73° East 385 443 31,000  Level Indianapolis Center
Wed 08:34:58 AM 38.1358 -80.3111 71° East 414 476 31,000  Level Indianapolis Center
Wed 08:35:59 AM 38.1764 -80.1578 71° East 447 514 31,000  Level Indianapolis Center
Wed 08:36:57 AM 38.2236 -80.0031 69° East 445 512 31,000  Level Washington Center
Wed 08:37:58 AM 38.2647 -79.8417 72° East 473 544 31,000  Level Washington Center
Wed 08:38:58 AM 38.3033 -79.6956 71° East 482 555 31,000  Level Washington Center
Wed 08:39:56 AM 38.3464 -79.5311 71° East 482 555 31,000 -454 Level Washington Center
Wed 08:40:57 AM 38.3869 -79.3692 72° East 477 549 30,100 -1,513 Descending Washington Center
Wed 08:41:55 AM 38.4294 -79.2122 71° East 471 542 28,000 -2,067 Descending Washington Center
Wed 08:42:56 AM 38.4700 -79.0392 73° East 465 535 26,000 -1,041 Descending Washington Center
Wed 08:43:56 AM 38.4992 -78.8839 76° East 451 519 25,900 -942 Descending Washington Center
Wed 08:44:57 AM 38.5203 -78.7283 80° East 451 519 24,100 -1,736 Descending Washington Center
Wed 08:45:57 AM 38.5403 -78.5886 80° East 434 499 22,400 -1,488 Descending Washington Center
Wed 08:46:58 AM 38.5647 -78.4486 77° East 410 472 21,100 -1,377 Descending Washington Center
Wed 08:47:59 AM 38.5867 -78.3142 78° East 400 460 19,600 -1,627 Descending Washington Center
Wed 08:48:56 AM 38.6186 -78.1825 73° East 389 448 17,900 -1,678 Descending Washington Center
Wed 08:49:57 AM 38.6544 -78.0694 68° East 364 419 16,300 -1,500 Descending Washington Center
Wed 08:50:56 AM 38.6878 -77.9667 67° East 335 386 14,900 -1,412 Descending Washington Center
Wed 08:51:56 AM 38.7211 -77.8614 68° East 314 361 13,500 -1,339 Descending Washington Center
Wed 08:52:57 AM 38.7686 -77.7722 56° Northeast 303 349 12,200 -1,289 Descending Washington Center
Wed 08:53:57 AM 38.8242 -77.6914 49° Northeast 303 349 10,900 -1,368 Descending Washington Center
Wed 08:54:51 AM 38.8833 -77.6167 44° Northeast 301 346 9,600 -1,474 Descending Potomac TRACON
Wed 08:55:51 AM 38.9167 -77.5167 67° East 299 344 8,100 -842 Descending Potomac TRACON
Wed 08:56:45 AM 38.8833 -77.4667 131° Southeast 242 278 8,000 -158 Descending Potomac TRACON
Wed 08:57:45 AM 38.8500 -77.4000 123° Southeast 233 268 7,800 -350 Descending Potomac TRACON
Wed 08:58:45 AM 38.8167 -77.3333 123° Southeast 214 246 7,300 -400 Descending Potomac TRACON
Wed 08:59:45 AM 38.7833 -77.2667 123° Southeast 220 253 7,000 -600 Descending Potomac TRACON
Wed 09:00:45 AM 38.8167 -77.2000 57° Northeast 208 239 6,100 -526 Descending Potomac TRACON
Wed 09:01:39 AM 38.8500 -77.1667 38° Northeast 217 250 6,000 -53 Descending Potomac TRACON
Wed 09:02:39 AM 38.9000 -77.2000 333° Northwest 212 244 6,000  Level Potomac TRACON
Wed 09:03:39 AM 38.9500 -77.2500 322° Northwest 199 229 6,000  Level Potomac TRACON
Wed 09:04:34 AM 38.9833 -77.3000 311° West 193 222 6,000 -522 Level Potomac TRACON
Wed 09:05:34 AM 39.0167 -77.3500 311° West 192 221 5,000 -500 Descending Potomac TRACON
Wed 09:06:34 AM 39.0667 -77.3167 27° Northeast 186 214 5,000  Level Potomac TRACON
Wed 09:07:28 AM 39.0667 -77.2667 90° East 187 215 5,000 -474 Level Potomac TRACON
Wed 09:08:28 AM 39.0167 -77.2333 153° Southeast 186 214 4,100 -632 Descending Potomac TRACON
Wed 09:09:22 AM 38.9833 -77.2167 159° South 184 212 3,800 -579 Descending Potomac TRACON
Wed 09:10:22 AM 38.9667 -77.1500 108° East 181 208 3,000 -900 Descending Potomac TRACON
Wed 09:11:22 AM 38.9333 -77.1167 142° Southeast 179 206 2,000 -1,050 Descending Potomac TRACON
Wed 09:12:22 AM 38.9000 -77.0667 131° Southeast 163 188 900 -1,100 Descending Potomac TRACON

Login

Don't have an account? Register now (free) for customized features, flight alerts, and more!